sensor_id;sensor_type;location;lat;lon;timestamp;pressure;altitude;pressure_sealevel;temperature;humidity
9899;BME280;4988;49.238;6.698;2024-02-21T00:02:02;100150.00;;;7.15;100.00
9899;BME280;4988;49.238;6.698;2024-02-21T00:04:28;100142.06;;;7.15;100.00
9899;BME280;4988;49.238;6.698;2024-02-21T00:06:53;100147.38;;;7.12;100.00
9899;BME280;4988;49.238;6.698;2024-02-21T00:09:18;100150.94;;;7.11;100.00
9899;BME280;4988;49.238;6.698;2024-02-21T00:11:44;100145.66;;;7.09;100.00
9899;BME280;4988;49.238;6.698;2024-02-21T00:14:10;100140.38;;;7.09;100.00
9899;BME280;4988;49.238;6.698;2024-02-21T00:16:35;100140.38;;;7.09;100.00
9899;BME280;4988;49.238;6.698;2024-02-21T00:19:00;100129.75;;;7.11;100.00
9899;BME280;4988;49.238;6.698;2024-02-21T00:21:25;100121.84;;;7.09;100.00
9899;BME280;4988;49.238;6.698;2024-02-21T00:23:51;100119.09;;;7.15;100.00
9899;BME280;4988;49.238;6.698;2024-02-21T00:26:16;100113.75;;;7.17;100.00
9899;BME280;4988;49.238;6.698;2024-02-21T00:28:41;100116.44;;;7.15;100.00
9899;BME280;4988;49.238;6.698;2024-02-21T00:31:07;100111.13;;;7.18;100.00
9899;BME280;4988;49.238;6.698;2024-02-21T00:33:32;100112.06;;;7.13;100.00
9899;BME280;4988;49.238;6.698;2024-02-21T00:35:57;100110.34;;;7.10;100.00
9899;BME280;4988;49.238;6.698;2024-02-21T00:38:23;100108.66;;;7.06;100.00
9899;BME280;4988;49.238;6.698;2024-02-21T00:40:48;100109.59;;;7.02;100.00
9899;BME280;4988;49.238;6.698;2024-02-21T00:43:13;100092.81;;;7.03;100.00
9899;BME280;4988;49.238;6.698;2024-02-21T00:45:39;100099.03;;;7.00;100.00
9899;BME280;4988;49.238;6.698;2024-02-21T00:48:05;100090.22;;;6.98;100.00
9899;BME280;4988;49.238;6.698;2024-02-21T00:50:30;100083.22;;;6.96;100.00
9899;BME280;4988;49.238;6.698;2024-02-21T00:52:55;100084.16;;;6.93;100.00
9899;BME280;4988;49.238;6.698;2024-02-21T00:55:21;100091.25;;;6.89;100.00
9899;BME280;4988;49.238;6.698;2024-02-21T00:57:46;100082.47;;;6.89;100.00
9899;BME280;4988;49.238;6.698;2024-02-21T01:00:12;100070.03;;;6.94;100.00
9899;BME280;4988;49.238;6.698;2024-02-21T01:02:37;100062.72;;;7.08;100.00
9899;BME280;4988;49.238;6.698;2024-02-21T01:05:03;100060.97;;;7.07;100.00
9899;BME280;4988;49.238;6.698;2024-02-21T01:07:28;100066.41;;;6.98;100.00
9899;BME280;4988;49.238;6.698;2024-02-21T01:09:54;100074.44;;;6.94;100.00
9899;BME280;4988;49.238;6.698;2024-02-21T01:12:19;100078.06;;;6.88;100.00
9899;BME280;4988;49.238;6.698;2024-02-21T01:14:44;100072.78;;;6.85;100.00
9899;BME280;4988;49.238;6.698;2024-02-21T01:17:11;100073.72;;;6.82;100.00
9899;BME280;4988;49.238;6.698;2024-02-21T01:19:36;100075.53;;;6.80;100.00
9899;BME280;4988;49.238;6.698;2024-02-21T01:22:02;100061.47;;;6.76;100.00
9899;BME280;4988;49.238;6.698;2024-02-21T01:24:28;100049.16;;;6.75;100.00
9899;BME280;4988;49.238;6.698;2024-02-21T01:26:53;100057.16;;;6.71;100.00
9899;BME280;4988;49.238;6.698;2024-02-21T01:29:18;100052.75;;;6.71;100.00
9899;BME280;4988;49.238;6.698;2024-02-21T01:31:43;100045.59;;;6.76;100.00
9899;BME280;4988;49.238;6.698;2024-02-21T01:34:09;100033.38;;;6.69;100.00
9899;BME280;4988;49.238;6.698;2024-02-21T01:36:34;100022.81;;;6.66;100.00
9899;BME280;4988;49.238;6.698;2024-02-21T01:39:00;100025.47;;;6.66;100.00
9899;BME280;4988;49.238;6.698;2024-02-21T01:41:25;100031.72;;;6.62;100.00
9899;BME280;4988;49.238;6.698;2024-02-21T01:43:50;100030.94;;;6.55;100.00
9899;BME280;4988;49.238;6.698;2024-02-21T01:46:15;100034.50;;;6.51;100.00
9899;BME280;4988;49.238;6.698;2024-02-21T01:48:41;100037.22;;;6.47;100.00
9899;BME280;4988;49.238;6.698;2024-02-21T01:51:06;100039.94;;;6.40;100.00
9899;BME280;4988;49.238;6.698;2024-02-21T01:53:35;100025.03;;;6.36;100.00
9899;BME280;4988;49.238;6.698;2024-02-21T01:56:02;100026.88;;;6.31;100.00
9899;BME280;4988;49.238;6.698;2024-02-21T01:58:28;100029.63;;;6.23;100.00
9899;BME280;4988;49.238;6.698;2024-02-21T02:00:56;100027.00;;;6.22;100.00
9899;BME280;4988;49.238;6.698;2024-02-21T02:03:21;100015.69;;;6.14;100.00
9899;BME280;4988;49.238;6.698;2024-02-21T02:05:48;100025.41;;;6.08;100.00
9899;BME280;4988;49.238;6.698;2024-02-21T02:08:17;100021.97;;;6.03;100.00
9899;BME280;4988;49.238;6.698;2024-02-21T02:10:43;100015.84;;;6.01;100.00
9899;BME280;4988;49.238;6.698;2024-02-21T02:13:09;100016.78;;;5.94;100.00
9899;BME280;4988;49.238;6.698;2024-02-21T02:15:42;100014.13;;;5.92;100.00
9899;BME280;4988;49.238;6.698;2024-02-21T02:18:07;100013.31;;;5.87;100.00
9899;BME280;4988;49.238;6.698;2024-02-21T02:20:33;100002.81;;;5.84;100.00
9899;BME280;4988;49.238;6.698;2024-02-21T02:22:59;99998.44;;;5.82;100.00
9899;BME280;4988;49.238;6.698;2024-02-21T02:25:26;99999.34;;;5.80;100.00
9899;BME280;4988;49.238;6.698;2024-02-21T02:27:53;99997.50;;;5.86;100.00
9899;BME280;4988;49.238;6.698;2024-02-21T02:30:19;99985.00;;;6.02;100.00
9899;BME280;4988;49.238;6.698;2024-02-21T02:32:47;99973.31;;;6.17;100.00
9899;BME280;4988;49.238;6.698;2024-02-21T02:35:13;99964.47;;;6.19;100.00
9899;BME280;4988;49.238;6.698;2024-02-21T02:37:38;99957.38;;;6.23;100.00
9899;BME280;4988;49.238;6.698;2024-02-21T02:40:05;99946.63;;;6.34;100.00
9899;BME280;4988;49.238;6.698;2024-02-21T02:42:31;99951.88;;;6.35;100.00
9899;BME280;4988;49.238;6.698;2024-02-21T02:44:56;99944.69;;;6.45;100.00
9899;BME280;4988;49.238;6.698;2024-02-21T02:47:22;99937.59;;;6.47;100.00
9899;BME280;4988;49.238;6.698;2024-02-21T02:49:47;99936.63;;;6.53;100.00
9899;BME280;4988;49.238;6.698;2024-02-21T02:52:16;99941.03;;;6.52;100.00
9899;BME280;4988;49.238;6.698;2024-02-21T02:54:41;99934.94;;;6.49;100.00
9899;BME280;4988;49.238;6.698;2024-02-21T02:57:06;99939.50;;;6.39;100.00
9899;BME280;4988;49.238;6.698;2024-02-21T02:59:32;99944.88;;;6.33;100.00
9899;BME280;4988;49.238;6.698;2024-02-21T03:01:57;99945.81;;;6.30;100.00
9899;BME280;4988;49.238;6.698;2024-02-21T03:04:23;99945.84;;;6.28;100.00
9899;BME280;4988;49.238;6.698;2024-02-21T03:06:48;99954.78;;;6.20;100.00
9899;BME280;4988;49.238;6.698;2024-02-21T03:09:14;99938.78;;;6.27;100.00
9899;BME280;4988;49.238;6.698;2024-02-21T03:11:40;99939.75;;;6.23;100.00
9899;BME280;4988;49.238;6.698;2024-02-21T03:14:08;99942.47;;;6.19;100.00
9899;BME280;4988;49.238;6.698;2024-02-21T03:16:33;99948.72;;;6.11;100.00
9899;BME280;4988;49.238;6.698;2024-02-21T03:18:59;99943.53;;;6.05;100.00
9899;BME280;4988;49.238;6.698;2024-02-21T03:21:24;99934.75;;;6.03;100.00
9899;BME280;4988;49.238;6.698;2024-02-21T03:23:49;99929.50;;;6.02;100.00
9899;BME280;4988;49.238;6.698;2024-02-21T03:26:15;99924.16;;;6.03;100.00
9899;BME280;4988;49.238;6.698;2024-02-21T03:28:42;99911.84;;;6.04;100.00
9899;BME280;4988;49.238;6.698;2024-02-21T03:31:11;99919.78;;;6.02;100.00
9899;BME280;4988;49.238;6.698;2024-02-21T03:33:36;99918.91;;;6.02;100.00
9899;BME280;4988;49.238;6.698;2024-02-21T03:36:01;99923.31;;;6.03;100.00
9899;BME280;4988;49.238;6.698;2024-02-21T03:38:27;99920.66;;;6.03;100.00
9899;BME280;4988;49.238;6.698;2024-02-21T03:40:52;99916.25;;;6.03;100.00
9899;BME280;4988;49.238;6.698;2024-02-21T03:43:18;99920.59;;;6.06;100.00
9899;BME280;4988;49.238;6.698;2024-02-21T03:45:43;99909.00;;;6.15;100.00
9899;BME280;4988;49.238;6.698;2024-02-21T03:48:08;99900.28;;;6.11;100.00
9899;BME280;4988;49.238;6.698;2024-02-21T03:50:34;99887.94;;;6.11;100.00
9899;BME280;4988;49.238;6.698;2024-02-21T03:52:59;99894.91;;;6.16;100.00
9899;BME280;4988;49.238;6.698;2024-02-21T03:55:24;99898.44;;;6.15;100.00
9899;BME280;4988;49.238;6.698;2024-02-21T03:57:50;99895.81;;;6.15;100.00
9899;BME280;4988;49.238;6.698;2024-02-21T04:00:15;99891.44;;;6.14;100.00
9899;BME280;4988;49.238;6.698;2024-02-21T04:02:40;99890.53;;;6.13;100.00
9899;BME280;4988;49.238;6.698;2024-02-21T04:05:06;99871.88;;;6.24;100.00
9899;BME280;4988;49.238;6.698;2024-02-21T04:07:36;99866.38;;;6.36;100.00
9899;BME280;4988;49.238;6.698;2024-02-21T04:10:01;99862.94;;;6.31;100.00
9899;BME280;4988;49.238;6.698;2024-02-21T04:12:27;99862.13;;;6.27;100.00
9899;BME280;4988;49.238;6.698;2024-02-21T04:14:52;99860.41;;;6.25;100.00
9899;BME280;4988;49.238;6.698;2024-02-21T04:17:17;99851.66;;;6.21;100.00
9899;BME280;4988;49.238;6.698;2024-02-21T04:19:43;99839.34;;;6.19;100.00
9899;BME280;4988;49.238;6.698;2024-02-21T04:22:08;99841.97;;;6.20;100.00
9899;BME280;4988;49.238;6.698;2024-02-21T04:24:33;99845.47;;;6.21;100.00
9899;BME280;4988;49.238;6.698;2024-02-21T04:26:59;99843.75;;;6.20;100.00
9899;BME280;4988;49.238;6.698;2024-02-21T04:29:24;99846.38;;;6.21;100.00
9899;BME280;4988;49.238;6.698;2024-02-21T04:31:49;99835.72;;;6.26;100.00
9899;BME280;4988;49.238;6.698;2024-02-21T04:34:15;99825.06;;;6.29;100.00
9899;BME280;4988;49.238;6.698;2024-02-21T04:36:40;99821.47;;;6.35;100.00
9899;BME280;4988;49.238;6.698;2024-02-21T04:39:05;99836.22;;;6.47;100.00
9899;BME280;4988;49.238;6.698;2024-02-21T04:41:30;99830.03;;;6.49;100.00
9899;BME280;4988;49.238;6.698;2024-02-21T04:43:56;99814.91;;;6.56;100.00
9899;BME280;4988;49.238;6.698;2024-02-21T04:46:21;99823.91;;;6.44;100.00
9899;BME280;4988;49.238;6.698;2024-02-21T04:48:46;99826.78;;;6.33;100.00
9899;BME280;4988;49.238;6.698;2024-02-21T04:51:12;99833.84;;;6.31;100.00
9899;BME280;4988;49.238;6.698;2024-02-21T04:53:38;99827.78;;;6.26;100.00
9899;BME280;4988;49.238;6.698;2024-02-21T04:56:03;99831.31;;;6.25;100.00
9899;BME280;4988;49.238;6.698;2024-02-21T04:58:29;99832.28;;;6.19;100.00
9899;BME280;4988;49.238;6.698;2024-02-21T05:00:54;99832.34;;;6.16;100.00
9899;BME280;4988;49.238;6.698;2024-02-21T05:03:20;99832.28;;;6.19;100.00
9899;BME280;4988;49.238;6.698;2024-02-21T05:05:45;99819.97;;;6.18;100.00
9899;BME280;4988;49.238;6.698;2024-02-21T05:08:11;99823.53;;;6.16;100.00
9899;BME280;4988;49.238;6.698;2024-02-21T05:10:36;99820.06;;;6.12;100.00
9899;BME280;4988;49.238;6.698;2024-02-21T05:13:01;99823.59;;;6.13;100.00
9899;BME280;4988;49.238;6.698;2024-02-21T05:15:27;99812.13;;;6.14;100.00
9899;BME280;4988;49.238;6.698;2024-02-21T05:17:52;99816.56;;;6.11;100.00
9899;BME280;4988;49.238;6.698;2024-02-21T05:20:18;99820.13;;;6.09;100.00
9899;BME280;4988;49.238;6.698;2024-02-21T05:22:43;99815.72;;;6.11;100.00
9899;BME280;4988;49.238;6.698;2024-02-21T05:25:08;99820.09;;;6.10;100.00
9899;BME280;4988;49.238;6.698;2024-02-21T05:27:34;99821.88;;;6.10;100.00
9899;BME280;4988;49.238;6.698;2024-02-21T05:30:00;99826.28;;;6.09;100.00
9899;BME280;4988;49.238;6.698;2024-02-21T05:32:26;99819.25;;;6.08;100.00
9899;BME280;4988;49.238;6.698;2024-02-21T05:34:51;99809.59;;;6.07;100.00
9899;BME280;4988;49.238;6.698;2024-02-21T05:37:17;99815.78;;;6.06;100.00
9899;BME280;4988;49.238;6.698;2024-02-21T05:39:42;99808.75;;;6.05;100.00
9899;BME280;4988;49.238;6.698;2024-02-21T05:42:09;99809.53;;;6.10;100.00
9899;BME280;4988;49.238;6.698;2024-02-21T05:44:34;99809.56;;;6.09;100.00
9899;BME280;4988;49.238;6.698;2024-02-21T05:46:59;99813.06;;;6.11;100.00
9899;BME280;4988;49.238;6.698;2024-02-21T05:49:25;99796.28;;;6.14;100.00
9899;BME280;4988;49.238;6.698;2024-02-21T05:51:50;99794.47;;;6.16;100.00
9899;BME280;4988;49.238;6.698;2024-02-21T05:54:15;99789.16;;;6.16;100.00
9899;BME280;4988;49.238;6.698;2024-02-21T05:56:45;99781.13;;;6.22;100.00
9899;BME280;4988;49.238;6.698;2024-02-21T05:59:11;99775.94;;;6.16;100.00
9899;BME280;4988;49.238;6.698;2024-02-21T06:01:36;99788.34;;;6.14;100.00
9899;BME280;4988;49.238;6.698;2024-02-21T06:04:01;99783.78;;;6.22;100.00
9899;BME280;4988;49.238;6.698;2024-02-21T06:06:27;99764.28;;;6.27;100.00
9899;BME280;4988;49.238;6.698;2024-02-21T06:08:52;99764.38;;;6.23;100.00
9899;BME280;4988;49.238;6.698;2024-02-21T06:11:17;99752.81;;;6.28;100.00
9899;BME280;4988;49.238;6.698;2024-02-21T06:13:43;99756.31;;;6.29;100.00
9899;BME280;4988;49.238;6.698;2024-02-21T06:16:08;99760.06;;;6.19;100.00
9899;BME280;4988;49.238;6.698;2024-02-21T06:18:35;99757.44;;;6.16;100.00
9899;BME280;4988;49.238;6.698;2024-02-21T06:21:01;99759.09;;;6.23;100.00
9899;BME280;4988;49.238;6.698;2024-02-21T06:23:27;99752.97;;;6.19;100.00
9899;BME280;4988;49.238;6.698;2024-02-21T06:25:52;99749.47;;;6.19;100.00
9899;BME280;4988;49.238;6.698;2024-02-21T06:28:17;99743.41;;;6.12;100.00
9899;BME280;4988;49.238;6.698;2024-02-21T06:30:42;99742.53;;;6.13;100.00
9899;BME280;4988;49.238;6.698;2024-02-21T06:33:08;99743.53;;;6.07;100.00
9899;BME280;4988;49.238;6.698;2024-02-21T06:35:33;99749.75;;;6.03;100.00
9899;BME280;4988;49.238;6.698;2024-02-21T06:37:59;99745.31;;;6.05;100.00
9899;BME280;4988;49.238;6.698;2024-02-21T06:40:24;99736.53;;;6.03;100.00
9899;BME280;4988;49.238;6.698;2024-02-21T06:42:50;99743.63;;;6.01;100.00
9899;BME280;4988;49.238;6.698;2024-02-21T06:45:16;99741.88;;;6.00;100.00
9899;BME280;4988;49.238;6.698;2024-02-21T06:47:41;99748.91;;;6.01;100.00
9899;BME280;4988;49.238;6.698;2024-02-21T06:50:07;99748.06;;;5.99;100.00
9899;BME280;4988;49.238;6.698;2024-02-21T06:52:34;99742.78;;;5.98;100.00
9899;BME280;4988;49.238;6.698;2024-02-21T06:54:59;99743.63;;;5.98;100.00
9899;BME280;4988;49.238;6.698;2024-02-21T06:57:24;99748.03;;;6.01;100.00
9899;BME280;4988;49.238;6.698;2024-02-21T06:59:50;99750.72;;;5.99;100.00
9899;BME280;4988;49.238;6.698;2024-02-21T07:02:15;99747.19;;;5.97;100.00
9899;BME280;4988;49.238;6.698;2024-02-21T07:04:40;99753.34;;;5.98;100.00
9899;BME280;4988;49.238;6.698;2024-02-21T07:07:06;99750.72;;;5.99;100.00
9899;BME280;4988;49.238;6.698;2024-02-21T07:09:31;99750.72;;;5.98;100.00
9899;BME280;4988;49.238;6.698;2024-02-21T07:12:00;99742.78;;;5.99;100.00
9899;BME280;4988;49.238;6.698;2024-02-21T07:14:28;99744.53;;;5.97;100.00
9899;BME280;4988;49.238;6.698;2024-02-21T07:16:53;99743.63;;;5.98;100.00
9899;BME280;4988;49.238;6.698;2024-02-21T07:19:19;99737.41;;;6.02;100.00
9899;BME280;4988;49.238;6.698;2024-02-21T07:21:44;99737.19;;;6.15;100.00
9899;BME280;4988;49.238;6.698;2024-02-21T07:24:10;99742.34;;;6.24;100.00
9899;BME280;4988;49.238;6.698;2024-02-21T07:26:35;99743.22;;;6.23;100.00
9899;BME280;4988;49.238;6.698;2024-02-21T07:29:00;99737.00;;;6.25;100.00
9899;BME280;4988;49.238;6.698;2024-02-21T07:31:26;99734.97;;;6.40;100.00
9899;BME280;4988;49.238;6.698;2024-02-21T07:33:51;99724.13;;;6.55;100.00
9899;BME280;4988;49.238;6.698;2024-02-21T07:36:27;99714.22;;;6.65;100.00
9899;BME280;4988;49.238;6.698;2024-02-21T07:38:53;99718.34;;;6.77;100.00
9899;BME280;4988;49.238;6.698;2024-02-21T07:41:18;99714.00;;;6.74;100.00
9899;BME280;4988;49.238;6.698;2024-02-21T07:43:43;99704.13;;;6.83;100.00
9899;BME280;4988;49.238;6.698;2024-02-21T07:46:09;99713.03;;;6.79;100.00
9899;BME280;4988;49.238;6.698;2024-02-21T07:48:34;99707.84;;;6.72;100.00
9899;BME280;4988;49.238;6.698;2024-02-21T07:50:59;99708.78;;;6.71;100.00
9899;BME280;4988;49.238;6.698;2024-02-21T07:53:25;99719.50;;;6.65;100.00
9899;BME280;4988;49.238;6.698;2024-02-21T07:55:50;99710.50;;;6.72;100.00
9899;BME280;4988;49.238;6.698;2024-02-21T07:58:15;99722.09;;;6.67;100.00
9899;BME280;4988;49.238;6.698;2024-02-21T08:00:41;99715.03;;;6.67;100.00
9899;BME280;4988;49.238;6.698;2024-02-21T08:03:06;99718.00;;;6.52;100.00
9899;BME280;4988;49.238;6.698;2024-02-21T08:05:34;99720.75;;;6.47;100.00
9899;BME280;4988;49.238;6.698;2024-02-21T08:07:59;99725.06;;;6.51;100.00
9899;BME280;4988;49.238;6.698;2024-02-21T08:10:25;99720.78;;;6.44;100.00
9899;BME280;4988;49.238;6.698;2024-02-21T08:12:50;99721.59;;;6.49;100.00
9899;BME280;4988;49.238;6.698;2024-02-21T08:15:15;99721.75;;;6.40;100.00
9899;BME280;4988;49.238;6.698;2024-02-21T08:17:41;99725.38;;;6.36;100.00
9899;BME280;4988;49.238;6.698;2024-02-21T08:20:06;99718.28;;;6.36;100.00
9899;BME280;4988;49.238;6.698;2024-02-21T08:22:32;99728.84;;;6.38;100.00
9899;BME280;4988;49.238;6.698;2024-02-21T08:24:57;99716.56;;;6.35;100.00
9899;BME280;4988;49.238;6.698;2024-02-21T08:27:22;99713.91;;;6.35;100.00
9899;BME280;4988;49.238;6.698;2024-02-21T08:29:48;99711.13;;;6.43;100.00
9899;BME280;4988;49.238;6.698;2024-02-21T08:32:13;99708.38;;;6.48;100.00
9899;BME280;4988;49.238;6.698;2024-02-21T08:34:38;99704.44;;;6.67;100.00
9899;BME280;4988;49.238;6.698;2024-02-21T08:37:03;99701.59;;;6.78;100.00
9899;BME280;4988;49.238;6.698;2024-02-21T08:39:29;99700.63;;;6.81;100.00
9899;BME280;4988;49.238;6.698;2024-02-21T08:41:56;99692.78;;;6.78;100.00
9899;BME280;4988;49.238;6.698;2024-02-21T08:44:22;99697.09;;;6.82;100.00
9899;BME280;4988;49.238;6.698;2024-02-21T08:46:49;99689.06;;;6.85;100.00
9899;BME280;4988;49.238;6.698;2024-02-21T08:49:14;99687.22;;;6.88;100.00
9899;BME280;4988;49.238;6.698;2024-02-21T08:51:40;99681.72;;;6.99;100.00
9899;BME280;4988;49.238;6.698;2024-02-21T08:54:05;99678.16;;;7.00;100.00
9899;BME280;4988;49.238;6.698;2024-02-21T08:56:31;99661.34;;;7.03;100.00
9899;BME280;4988;49.238;6.698;2024-02-21T08:58:56;99664.16;;;6.95;100.00
9899;BME280;4988;49.238;6.698;2024-02-21T09:01:23;99672.00;;;7.00;100.00
9899;BME280;4988;49.238;6.698;2024-02-21T09:03:48;99652.38;;;7.08;100.00
9899;BME280;4988;49.238;6.698;2024-02-21T09:06:17;99656.69;;;7.13;100.00
9899;BME280;4988;49.238;6.698;2024-02-21T09:08:43;99643.84;;;7.33;100.00
9899;BME280;4988;49.238;6.698;2024-02-21T09:11:08;99640.22;;;7.37;100.00
9899;BME280;4988;49.238;6.698;2024-02-21T09:13:34;99622.56;;;7.38;100.00
9899;BME280;4988;49.238;6.698;2024-02-21T09:15:59;99628.94;;;7.29;100.00
9899;BME280;4988;49.238;6.698;2024-02-21T09:18:24;99629.88;;;7.28;100.00
9899;BME280;4988;49.238;6.698;2024-02-21T09:20:50;99622.88;;;7.24;100.00
9899;BME280;4988;49.238;6.698;2024-02-21T09:23:15;99624.56;;;7.27;100.00
9899;BME280;4988;49.238;6.698;2024-02-21T09:25:41;99622.41;;;7.44;100.00
9899;BME280;4988;49.238;6.698;2024-02-21T09:28:06;99615.00;;;7.57;100.00
9899;BME280;4988;49.238;6.698;2024-02-21T09:30:31;99606.19;;;7.55;100.00
9899;BME280;4988;49.238;6.698;2024-02-21T09:32:57;99593.59;;;7.65;100.00
9899;BME280;4988;49.238;6.698;2024-02-21T09:35:24;99590.34;;;7.86;100.00
9899;BME280;4988;49.238;6.698;2024-02-21T09:37:52;99581.94;;;8.03;100.00
9899;BME280;4988;49.238;6.698;2024-02-21T09:40:17;99572.97;;;8.08;100.00
9899;BME280;4988;49.238;6.698;2024-02-21T09:42:43;99562.50;;;8.03;100.00
9899;BME280;4988;49.238;6.698;2024-02-21T09:45:19;99566.03;;;8.03;100.00
9899;BME280;4988;49.238;6.698;2024-02-21T09:50:27;99565.94;;;8.07;100.00
9899;BME280;4988;49.238;6.698;2024-02-21T09:52:54;99566.03;;;8.03;100.00
9899;BME280;4988;49.238;6.698;2024-02-21T09:55:20;99566.88;;;8.04;100.00
9899;BME280;4988;49.238;6.698;2024-02-21T09:57:45;99563.75;;;8.21;100.00
9899;BME280;4988;49.238;6.698;2024-02-21T10:00:11;99567.41;;;8.17;100.00
9899;BME280;4988;49.238;6.698;2024-02-21T10:02:39;99559.09;;;8.29;100.00
9899;BME280;4988;49.238;6.698;2024-02-21T10:05:04;99551.53;;;8.45;100.00
9899;BME280;4988;49.238;6.698;2024-02-21T10:07:33;99550.00;;;8.38;100.00
9899;BME280;4988;49.238;6.698;2024-02-21T10:10:03;99548.59;;;8.56;100.00
9899;BME280;4988;49.238;6.698;2024-02-21T10:12:28;99546.84;;;8.55;100.00
9899;BME280;4988;49.238;6.698;2024-02-21T10:15:03;99547.47;;;8.63;100.00
9899;BME280;4988;49.238;6.698;2024-02-21T10:17:29;99539.16;;;8.74;100.00
9899;BME280;4988;49.238;6.698;2024-02-21T10:19:55;99535.59;;;8.75;100.00
9899;BME280;4988;49.238;6.698;2024-02-21T10:22:20;99540.66;;;8.83;100.00
9899;BME280;4988;49.238;6.698;2024-02-21T10:24:50;99535.84;;;8.67;100.00
9899;BME280;4988;49.238;6.698;2024-02-21T10:27:16;99524.19;;;8.72;100.00
9899;BME280;4988;49.238;6.698;2024-02-21T10:29:41;99523.09;;;8.79;100.00
9899;BME280;4988;49.238;6.698;2024-02-21T10:32:11;99527.91;;;8.66;100.00
9899;BME280;4988;49.238;6.698;2024-02-21T10:34:38;99523.09;;;8.79;100.00
9899;BME280;4988;49.238;6.698;2024-02-21T10:37:08;99528.81;;;8.93;100.00
9899;BME280;4988;49.238;6.698;2024-02-21T10:39:35;99523.44;;;8.95;100.00
9899;BME280;4988;49.238;6.698;2024-02-21T10:42:02;99529.63;;;8.95;99.31
9899;BME280;4988;49.238;6.698;2024-02-21T10:44:29;99533.41;;;8.88;98.25
9899;BME280;4988;49.238;6.698;2024-02-21T10:46:56;99531.75;;;8.84;99.91
9899;BME280;4988;49.238;6.698;2024-02-21T10:49:29;99533.22;;;8.94;99.78
9899;BME280;4988;49.238;6.698;2024-02-21T10:54:34;99519.69;;;9.02;99.09
9899;BME280;4988;49.238;6.698;2024-02-21T10:57:05;99514.38;;;9.02;99.60
9899;BME280;4988;49.238;6.698;2024-02-21T10:59:31;99510.13;;;8.96;98.12
9899;BME280;4988;49.238;6.698;2024-02-21T11:01:57;99507.41;;;8.98;98.84
9899;BME280;4988;49.238;6.698;2024-02-21T11:04:23;99506.41;;;9.02;98.41
9899;BME280;4988;49.238;6.698;2024-02-21T11:06:49;99503.03;;;8.97;98.21
9899;BME280;4988;49.238;6.698;2024-02-21T11:09:15;99502.84;;;9.01;97.84
9899;BME280;4988;49.238;6.698;2024-02-21T11:11:43;99501.34;;;8.94;98.81
9899;BME280;4988;49.238;6.698;2024-02-21T11:14:20;99491.69;;;8.92;98.68
9899;BME280;4988;49.238;6.698;2024-02-21T11:16:46;99492.50;;;8.94;99.02
9899;BME280;4988;49.238;6.698;2024-02-21T11:19:28;99481.03;;;8.93;99.81
9899;BME280;4988;49.238;6.698;2024-02-21T11:21:57;99470.56;;;9.14;98.89
9899;BME280;4988;49.238;6.698;2024-02-21T11:24:31;99467.19;;;9.10;97.73
9899;BME280;4988;49.238;6.698;2024-02-21T11:27:19;99460.06;;;9.11;96.72
9899;BME280;4988;49.238;6.698;2024-02-21T11:29:47;99448.25;;;8.94;96.99
9899;BME280;4988;49.238;6.698;2024-02-21T11:32:14;99446.41;;;8.96;96.75
9899;BME280;4988;49.238;6.698;2024-02-21T11:34:41;99443.69;;;8.98;97.23
9899;BME280;4988;49.238;6.698;2024-02-21T11:37:13;99437.78;;;8.90;97.00
9899;BME280;4988;49.238;6.698;2024-02-21T11:39:41;99420.50;;;9.03;97.44
9899;BME280;4988;49.238;6.698;2024-02-21T11:42:07;99415.63;;;9.16;96.42
9899;BME280;4988;49.238;6.698;2024-02-21T11:44:35;99410.22;;;9.19;95.96
9899;BME280;4988;49.238;6.698;2024-02-21T11:47:00;99407.63;;;9.41;94.86
9899;BME280;4988;49.238;6.698;2024-02-21T11:49:27;99401.81;;;9.30;93.78
9899;BME280;4988;49.238;6.698;2024-02-21T11:52:00;99392.94;;;9.31;93.88
9899;BME280;4988;49.238;6.698;2024-02-21T11:54:27;99372.38;;;9.36;93.53
9899;BME280;4988;49.238;6.698;2024-02-21T11:56:52;99364.34;;;9.14;94.75
9899;BME280;4988;49.238;6.698;2024-02-21T11:59:17;99352.47;;;9.24;95.47
9899;BME280;4988;49.238;6.698;2024-02-21T12:01:43;99353.97;;;9.31;94.33
9899;BME280;4988;49.238;6.698;2024-02-21T12:04:08;99345.63;;;9.41;93.97
9899;BME280;4988;49.238;6.698;2024-02-21T12:06:33;99345.94;;;9.33;93.79
9899;BME280;4988;49.238;6.698;2024-02-21T12:08:59;99330.59;;;9.41;92.65
9899;BME280;4988;49.238;6.698;2024-02-21T12:11:24;99325.31;;;9.40;93.36
9899;BME280;4988;49.238;6.698;2024-02-21T12:14:00;99321.31;;;9.52;94.67
9899;BME280;4988;49.238;6.698;2024-02-21T12:16:30;99304.63;;;9.48;92.48
9899;BME280;4988;49.238;6.698;2024-02-21T12:18:59;99304.88;;;9.42;92.96
9899;BME280;4988;49.238;6.698;2024-02-21T12:21:34;99286.94;;;9.47;94.13
9899;BME280;4988;49.238;6.698;2024-02-21T12:24:15;99289.44;;;9.52;94.85
9899;BME280;4988;49.238;6.698;2024-02-21T12:26:41;99284.44;;;9.66;93.15
9899;BME280;4988;49.238;6.698;2024-02-21T12:29:07;99267.44;;;9.70;93.16
9899;BME280;4988;49.238;6.698;2024-02-21T12:31:35;99258.03;;;9.61;93.52
9899;BME280;4988;49.238;6.698;2024-02-21T12:34:01;99256.06;;;9.66;92.10
9899;BME280;4988;49.238;6.698;2024-02-21T12:36:26;99252.28;;;9.50;92.85
9899;BME280;4988;49.238;6.698;2024-02-21T12:38:51;99258.03;;;9.39;92.95
9899;BME280;4988;49.238;6.698;2024-02-21T12:41:16;99266.75;;;9.43;94.10
9899;BME280;4988;49.238;6.698;2024-02-21T12:43:42;99244.31;;;9.50;93.35
9899;BME280;4988;49.238;6.698;2024-02-21T12:46:08;99238.94;;;9.52;92.56
9899;BME280;4988;49.238;6.698;2024-02-21T12:48:33;99237.13;;;9.52;92.74
9899;BME280;4988;49.238;6.698;2024-02-21T12:50:59;99230.38;;;9.45;93.35
9899;BME280;4988;49.238;6.698;2024-02-21T12:53:24;99224.72;;;9.53;93.14
9899;BME280;4988;49.238;6.698;2024-02-21T12:55:50;99227.38;;;9.53;92.75
9899;BME280;4988;49.238;6.698;2024-02-21T12:58:16;99199.31;;;9.68;93.49
9899;BME280;4988;49.238;6.698;2024-02-21T13:00:42;99225.91;;;9.68;92.83
9899;BME280;4988;49.238;6.698;2024-02-21T13:03:07;99203.63;;;9.70;92.75
9899;BME280;4988;49.238;6.698;2024-02-21T13:05:35;99210.34;;;9.79;92.80
9899;BME280;4988;49.238;6.698;2024-02-21T13:08:00;99204.00;;;9.83;92.26
9899;BME280;4988;49.238;6.698;2024-02-21T13:10:25;99200.19;;;9.89;92.38
9899;BME280;4988;49.238;6.698;2024-02-21T13:12:50;99185.78;;;9.94;91.38
9899;BME280;4988;49.238;6.698;2024-02-21T13:15:16;99176.28;;;9.89;90.40
9899;BME280;4988;49.238;6.698;2024-02-21T13:17:46;99176.66;;;10.00;89.35
9899;BME280;4988;49.238;6.698;2024-02-21T13:20:12;99167.56;;;10.06;90.65
9899;BME280;4988;49.238;6.698;2024-02-21T13:22:37;99180.31;;;9.97;89.79